Time;durP1;ratioP1;P1;durP2;ratioP2;P2;SDS_P1;SDS_P2;PMS_P1;PMS_P2;Temp;Humidity;BMP_temperature;BMP_pressure;BME280_temperature;BME280_humidity;BME280_pressure;Samples;Min_cycle;Max_cycle;Signal;HPM_P1;HPM_P2
2021/12/11 00:00:58;;;;;;;21.67;12.98;;;;;;;0.74;100.00;100326.34;2074534;28;20508;-62
2021/12/11 00:02:05;;;;;;;25.70;15.18;;;;;;;0.72;100.00;100326.34;2074349;28;20033;-62
2021/12/11 00:03:13;;;;;;;27.27;15.63;;;;;;;0.76;100.00;100333.16;2065653;28;20018;-63
2021/12/11 00:04:17;;;;;;;20.10;12.63;;;;;;;0.74;100.00;100328.91;2066734;28;20045;-63
2021/12/11 00:05:17;;;;;;;24.05;13.30;;;;;;;0.70;100.00;100337.50;2074384;28;20099;-63
2021/12/11 00:06:24;;;;;;;20.83;13.53;;;;;;;0.68;100.00;100334.97;2074506;28;20069;-61
2021/12/11 00:07:29;;;;;;;23.33;13.05;;;;;;;0.64;100.00;100334.16;2074344;28;20045;-62
2021/12/11 00:08:30;;;;;;;23.00;14.18;;;;;;;0.65;100.00;100340.13;2074454;28;20371;-63
2021/12/11 00:09:33;;;;;;;;;;;;;;;0.61;100.00;100343.59;2074976;28;20064;-62
2021/12/11 00:10:45;;;;;;;20.02;11.80;;;;;;;0.59;100.00;100340.19;2065649;28;19913;-62
2021/12/11 00:11:48;;;;;;;;;;;;;;;0.58;100.00;100343.63;2067696;28;20021;-63
2021/12/11 00:12:57;;;;;;;19.48;11.60;;;;;;;0.55;100.00;100347.06;2074425;28;19913;-63
2021/12/11 00:14:01;;;;;;;21.83;12.40;;;;;;;0.50;100.00;100353.97;2074278;28;20501;-63
2021/12/11 00:15:13;;;;;;;17.77;10.88;;;;;;;0.47;100.00;100351.41;2074320;28;20026;-63
2021/12/11 00:16:19;;;;;;;27.90;13.60;;;;;;;0.46;100.00;100353.16;2074283;28;20034;-62
2021/12/11 00:17:23;;;;;;;28.25;13.57;;;;;;;0.46;100.00;100357.41;2074294;28;20509;-62
2021/12/11 00:18:26;;;;;;;23.10;13.63;;;;;;;0.46;100.00;100355.72;2074300;28;20033;-62
2021/12/11 00:19:29;;;;;;;22.85;13.60;;;;;;;0.43;100.00;100362.56;2074226;28;20028;-61
2021/12/11 00:20:34;;;;;;;23.20;13.45;;;;;;;0.37;100.00;100361.75;2074293;28;20055;-63
2021/12/11 00:21:36;;;;;;;19.52;13.00;;;;;;;0.35;100.00;100367.78;2074159;28;20124;-62
2021/12/11 00:22:41;;;;;;;22.00;14.20;;;;;;;0.34;100.00;100366.91;2074187;28;20026;-61
2021/12/11 00:23:51;;;;;;;21.48;13.25;;;;;;;0.33;100.00;100375.50;2074247;28;20058;-61
2021/12/11 00:24:56;;;;;;;20.50;12.60;;;;;;;0.30;100.00;100370.38;2074241;28;20063;-62
2021/12/11 00:25:57;;;;;;;23.45;13.23;;;;;;;0.29;100.00;100372.94;2074265;28;20026;-62
2021/12/11 00:27:19;;;;;;;21.98;13.68;;;;;;;0.25;100.00;100380.66;2074227;28;20025;-62
2021/12/11 00:28:20;;;;;;;18.88;11.32;;;;;;;0.24;100.00;100376.41;2073604;28;20103;-62
2021/12/11 00:29:26;;;;;;;22.95;13.05;;;;;;;0.25;100.00;100377.25;2074245;28;20029;-61
2021/12/11 00:30:31;;;;;;;21.48;12.75;;;;;;;0.23;100.00;100387.53;2074065;28;20030;-62
2021/12/11 00:31:34;;;;;;;22.92;13.68;;;;;;;0.21;100.00;100391.81;2074242;28;20041;-62
2021/12/11 00:32:34;;;;;;;21.02;12.52;;;;;;;0.19;100.00;100396.13;2074193;28;20030;-62
2021/12/11 00:33:35;;;;;;;22.90;12.95;;;;;;;0.16;100.00;100388.44;2074242;28;20487;-62
2021/12/11 00:34:40;;;;;;;23.53;13.03;;;;;;;0.15;100.00;100391.88;2074211;28;20056;-63
2021/12/11 00:35:40;;;;;;;26.15;13.57;;;;;;;0.15;100.00;100386.75;2074213;28;20025;-61
2021/12/11 00:36:50;;;;;;;20.80;13.05;;;;;;;0.20;100.00;100400.38;2065446;28;20085;-62
2021/12/11 00:37:50;;;;;;;26.65;14.32;;;;;;;0.18;100.00;100402.13;2066586;28;20041;-62
2021/12/11 00:38:52;;;;;;;21.27;12.80;;;;;;;0.15;100.00;100404.72;2074070;28;20048;-62
2021/12/11 00:40:13;;;;;;;22.80;12.70;;;;;;;0.12;100.00;100403.00;2074110;28;20461;-61
2021/12/11 00:41:16;;;;;;;20.83;12.40;;;;;;;0.11;100.00;100405.59;2073707;28;20042;-63
2021/12/11 00:42:20;;;;;;;23.85;13.80;;;;;;;0.12;100.00;100409.84;2065375;28;20034;-62
2021/12/11 00:43:28;;;;;;;22.50;14.07;;;;;;;0.13;100.00;100408.97;2065828;28;20097;-61
2021/12/11 00:44:35;;;;;;;22.83;14.43;;;;;;;0.10;100.00;100415.00;2074121;28;20475;-62
2021/12/11 00:45:39;;;;;;;27.98;13.90;;;;;;;0.11;100.00;100410.72;2073930;28;20034;-62
2021/12/11 00:46:39;;;;;;;21.88;12.93;;;;;;;0.08;100.00;100415.88;2065430;28;20050;-62
2021/12/11 00:48:00;;;;;;;23.50;14.17;;;;;;;0.04;100.00;100419.31;2065422;28;20022;-62
2021/12/11 00:49:07;;;;;;;25.52;13.20;;;;;;;0.00;100.00;100415.91;2074057;28;20013;-62
2021/12/11 00:50:11;;;;;;;24.95;14.00;;;;;;;-0.01;100.00;100422.75;2074011;28;20033;-62
2021/12/11 00:51:16;;;;;;;24.95;14.63;;;;;;;-0.03;100.00;100421.91;2074005;28;20030;-62
2021/12/11 00:52:17;;;;;;;27.50;14.80;;;;;;;-0.04;100.00;100422.75;2073659;28;20455;-62
2021/12/11 00:53:57;;;;;;;24.02;13.63;;;;;;;-0.05;100.00;100426.19;2073548;28;20084;-62
2021/12/11 00:54:58;;;;;;;22.88;12.73;;;;;;;-0.04;100.00;100424.47;2048821;29;20035;-61
2021/12/11 00:56:06;;;;;;;25.23;14.48;;;;;;;-0.02;100.00;100428.75;2069327;28;20649;-62
2021/12/11 00:57:10;;;;;;;24.55;14.65;;;;;;;-0.06;100.00;100424.50;2073945;28;20037;-62
2021/12/11 00:58:18;;;;;;;24.13;13.90;;;;;;;-0.08;100.00;100439.03;2074020;28;20040;-62
2021/12/11 00:59:20;;;;;;;24.60;14.18;;;;;;;-0.11;100.00;100441.59;2073959;28;20029;-62
2021/12/11 01:00:23;;;;;;;24.42;14.38;;;;;;;-0.09;100.00;100434.78;2073971;28;20076;-62
2021/12/11 01:01:27;;;;;;;25.55;14.07;;;;;;;-0.13;100.00;100440.78;2073945;28;20026;-62
2021/12/11 01:02:28;;;;;;;25.42;14.57;;;;;;;-0.16;100.00;100436.53;2065172;28;20503;-62
2021/12/11 01:03:39;;;;;;;23.52;14.25;;;;;;;-0.18;100.00;100447.63;2065221;28;20030;-62
2021/12/11 01:04:41;;;;;;;25.10;14.20;;;;;;;-0.19;100.00;100445.94;2074016;28;20386;-63
2021/12/11 01:05:45;;;;;;;24.00;14.02;;;;;;;-0.19;100.00;100445.94;2073965;28;20100;-62
2021/12/11 01:06:49;;;;;;;26.63;14.35;;;;;;;-0.19;100.00;100443.34;2073951;28;20034;-62
2021/12/11 01:07:50;;;;;;;24.40;14.07;;;;;;;-0.19;100.00;100448.50;2073938;28;20014;-62
2021/12/11 01:08:58;;;;;;;25.90;14.68;;;;;;;-0.21;100.00;100445.09;2073998;28;20498;-62
2021/12/11 01:10:05;;;;;;;26.52;14.00;;;;;;;-0.23;100.00;100451.94;2065008;28;20054;-62
2021/12/11 01:11:16;;;;;;;26.23;14.25;;;;;;;-0.23;100.00;100457.91;2066151;28;20495;-62
2021/12/11 01:12:39;;;;;;;26.08;15.00;;;;;;;-0.25;100.00;100457.06;2073891;28;20457;-62
2021/12/11 01:13:47;;;;;;;24.85;13.75;;;;;;;-0.31;100.00;100455.38;2073934;28;20040;-62
2021/12/11 01:14:56;;;;;;;20.98;12.75;;;;;;;-0.33;100.00;100459.66;2073828;28;20372;-62
2021/12/11 01:16:00;;;;;;;21.48;13.00;;;;;;;-0.37;100.00;100449.41;2073868;28;20034;-62
2021/12/11 01:17:16;;;;;;;22.38;13.13;;;;;;;-0.39;100.00;100457.09;2073840;28;20105;-62
2021/12/11 01:18:22;;;;;;;23.35;13.05;;;;;;;-0.44;100.00;100463.97;2073881;28;20021;-62
2021/12/11 01:19:25;;;;;;;23.80;13.63;;;;;;;-0.44;100.00;100466.53;2065045;28;20054;-62
2021/12/11 01:20:36;;;;;;;22.52;13.60;;;;;;;-0.44;100.00;100459.69;2065292;28;20033;-62
2021/12/11 01:22:42;;;;;;;25.15;13.75;;;;;;;-0.49;100.00;100475.94;2073934;28;20030;-62
2021/12/11 01:23:57;;;;;;;23.52;13.75;;;;;;;-0.50;100.00;100479.34;2065110;28;20049;-62
2021/12/11 01:25:00;;;;;;;21.75;12.55;;;;;;;-0.53;100.00;100485.34;2067033;28;20018;-63
2021/12/11 01:26:07;;;;;;;22.83;13.05;;;;;;;-0.53;100.00;100481.09;2073802;28;20025;-63
2021/12/11 01:27:10;;;;;;;24.30;14.07;;;;;;;-0.50;100.00;100487.91;2073682;28;20041;-63
2021/12/11 01:28:10;;;;;;;22.88;13.85;;;;;;;-0.52;100.00;100487.91;2073845;28;20116;-63
2021/12/11 01:29:11;;;;;;;22.83;13.27;;;;;;;-0.53;100.00;100491.34;2073894;28;20022;-63
2021/12/11 01:30:34;;;;;;;25.90;14.27;;;;;;;-0.57;100.00;100494.78;2073765;28;20034;-62
2021/12/11 01:31:36;;;;;;;20.52;11.93;;;;;;;-0.60;100.00;100499.91;2073140;28;20034;-62
2021/12/11 01:32:37;;;;;;;21.92;12.60;;;;;;;-0.59;100.00;100496.47;2073789;28;20084;-62
2021/12/11 01:33:37;;;;;;;25.17;12.93;;;;;;;-0.61;100.00;100492.22;2065035;28;20069;-63
2021/12/11 01:34:38;;;;;;;26.90;14.75;;;;;;;-0.59;100.00;100499.03;2065096;28;20034;-63
2021/12/11 01:35:40;;;;;;;23.63;14.60;;;;;;;-0.57;100.00;100499.03;2073774;28;20101;-63
2021/12/11 01:36:40;;;;;;;25.98;15.02;;;;;;;-0.61;100.00;100503.31;2073773;28;20044;-63
2021/12/11 01:37:41;;;;;;;23.27;14.07;;;;;;;-0.60;100.00;100509.28;2073795;28;20041;-62
2021/12/11 01:38:42;;;;;;;24.20;13.43;;;;;;;-0.58;100.00;100508.41;2073781;28;20037;-62
2021/12/11 01:39:44;;;;;;;23.55;14.25;;;;;;;-0.55;100.00;100505.03;2073678;28;20060;-63
2021/12/11 01:40:49;;;;;;;24.90;14.20;;;;;;;-0.57;100.00;100510.16;2073693;28;20057;-62
2021/12/11 01:41:53;;;;;;;24.17;14.18;;;;;;;-0.60;100.00;100511.84;2073729;28;20082;-62
2021/12/11 01:42:53;;;;;;;26.38;13.75;;;;;;;-0.60;100.00;100517.84;2073718;28;20033;-62
2021/12/11 01:43:57;;;;;;;28.57;15.83;;;;;;;-0.61;100.00;100522.97;2073774;28;20029;-63
2021/12/11 01:44:59;;;;;;;26.98;15.18;;;;;;;-0.61;100.00;100521.28;2073508;28;20117;-63
2021/12/11 01:46:00;;;;;;;23.25;14.55;;;;;;;-0.58;100.00;100534.06;2073655;28;20117;-63
2021/12/11 01:47:06;;;;;;;21.95;12.25;;;;;;;-0.53;100.00;100528.94;2073697;28;20602;-63
2021/12/11 01:48:06;;;;;;;23.05;13.05;;;;;;;-0.54;100.00;100530.63;2073679;28;20067;-63
2021/12/11 01:49:20;;;;;;;24.73;14.27;;;;;;;-0.61;100.00;100539.22;2073696;28;20080;-63
2021/12/11 01:50:36;;;;;;;26.35;13.55;;;;;;;-0.65;100.00;100547.75;2073610;28;20392;-63
2021/12/11 01:51:43;;;;;;;25.90;13.50;;;;;;;-0.67;100.00;100544.34;2073636;28;20390;-63
2021/12/11 01:53:07;;;;;;;24.90;13.32;;;;;;;-0.72;100.00;100551.19;2073733;28;20052;-62
2021/12/11 01:54:19;;;;;;;22.02;11.68;;;;;;;-0.79;100.00;100556.28;2073683;28;20026;-62
2021/12/11 01:55:22;;;;;;;21.67;13.30;;;;;;;-0.84;100.00;100558.00;2073705;28;20472;-62
2021/12/11 01:56:25;;;;;;;21.98;12.68;;;;;;;-0.91;100.00;100561.41;2073655;28;20030;-62
2021/12/11 01:57:29;;;;;;;20.70;12.25;;;;;;;-0.96;100.00;100568.25;2073684;28;20021;-62
2021/12/11 01:58:36;;;;;;;21.52;12.55;;;;;;;-0.97;100.00;100569.09;2073751;28;20466;-62
2021/12/11 01:59:43;;;;;;;22.83;13.13;;;;;;;-0.98;100.00;100575.06;2073610;28;20037;-62
2021/12/11 02:00:53;;;;;;;20.58;12.93;;;;;;;-0.95;100.00;100580.19;2073617;28;20034;-62
2021/12/11 02:02:16;;;;;;;21.42;12.27;;;;;;;-0.90;100.00;100588.75;2073492;28;20037;-62
2021/12/11 02:03:22;;;;;;;25.60;13.93;;;;;;;-0.82;100.00;100581.06;2072961;28;20077;-61
2021/12/11 02:04:26;;;;;;;22.77;12.30;;;;;;;-0.80;100.00;100589.59;2073523;28;20029;-62
2021/12/11 02:05:32;;;;;;;24.50;13.23;;;;;;;-0.78;100.00;100586.19;2073643;28;20028;-62
2021/12/11 02:06:36;;;;;;;26.60;13.75;;;;;;;-0.73;100.00;100593.00;2073591;28;20044;-62
2021/12/11 02:07:44;;;;;;;21.80;13.05;;;;;;;-0.71;100.00;100594.75;2073628;28;20022;-62
2021/12/11 02:08:45;;;;;;;23.30;12.25;;;;;;;-0.68;100.00;100592.16;2064822;28;20026;-61
2021/12/11 02:09:54;;;;;;;23.93;13.40;;;;;;;-0.65;100.00;100602.44;2064875;28;20041;-62
2021/12/11 02:10:56;;;;;;;21.25;12.57;;;;;;;-0.62;100.00;100604.13;2073640;28;20851;-62
2021/12/11 02:12:14;;;;;;;26.15;14.13;;;;;;;-0.60;100.00;100599.00;2073563;28;20030;-62
2021/12/11 02:13:23;;;;;;;27.10;13.52;;;;;;;-0.60;100.00;100596.44;2073595;28;20022;-62
2021/12/11 02:14:31;;;;;;;20.40;12.05;;;;;;;-0.60;100.00;100597.31;2073572;28;20141;-62
2021/12/11 02:15:37;;;;;;;22.73;13.38;;;;;;;-0.62;100.00;100599.00;2073549;28;20030;-62
2021/12/11 02:16:48;;;;;;;22.48;13.23;;;;;;;-0.61;100.00;100595.59;2073551;28;20052;-62
2021/12/11 02:18:01;;;;;;;21.52;12.88;;;;;;;-0.54;100.00;100602.41;2064804;28;20026;-62
2021/12/11 02:19:11;;;;;;;26.25;13.23;;;;;;;-0.51;100.00;100604.16;2066615;28;20068;-62
2021/12/11 02:20:19;;;;;;;25.05;13.82;;;;;;;-0.48;100.00;100600.72;2073529;28;20367;-62
2021/12/11 02:21:57;;;;;;;23.95;14.07;;;;;;;-0.49;100.00;100601.56;2073542;28;20151;-62
2021/12/11 02:22:58;;;;;;;24.10;12.45;;;;;;;-0.49;100.00;100599.00;2061874;28;20050;-63
2021/12/11 02:24:06;;;;;;;25.65;13.57;;;;;;;-0.47;100.00;100602.44;2073511;28;20074;-63
2021/12/11 02:25:15;;;;;;;22.23;13.13;;;;;;;-0.48;100.00;100605.84;2073438;28;20502;-62
2021/12/11 02:26:17;;;;;;;24.40;12.73;;;;;;;-0.49;100.00;100614.38;2073485;28;20033;-63
2021/12/11 02:27:24;;;;;;;27.10;14.48;;;;;;;-0.50;100.00;100610.13;2073515;28;20123;-63
2021/12/11 02:28:39;;;;;;;25.50;14.82;;;;;;;-0.48;100.00;100616.09;2073333;28;20048;-63
2021/12/11 02:29:49;;;;;;;18.70;12.07;;;;;;;-0.53;100.00;100619.53;2073493;28;20398;-63
2021/12/11 02:31:34;;;;;;;23.02;11.68;;;;;;;-0.57;100.00;100617.81;2073487;28;20100;-63
2021/12/11 02:32:41;;;;;;;18.67;9.98;;;;;;;-0.64;100.00;100623.78;2048466;29;20114;-62
2021/12/11 02:33:47;;;;;;;17.38;9.18;;;;;;;-0.68;100.00;100624.66;2073459;28;20187;-62
2021/12/11 02:34:57;;;;;;;19.80;11.73;;;;;;;-0.70;100.00;100628.91;2073448;28;20033;-62
2021/12/11 02:36:24;;;;;;;22.02;11.27;;;;;;;-0.70;100.00;100634.91;2064648;28;20019;-61
2021/12/11 02:37:44;;;;;;;22.10;10.95;;;;;;;-0.69;100.00;100634.03;2068398;28;20510;-61
2021/12/11 02:38:59;;;;;;;21.40;11.88;;;;;;;-0.66;100.00;100644.28;2073424;28;20080;-62
2021/12/11 02:40:07;;;;;;;21.70;12.02;;;;;;;-0.62;100.00;100645.16;2073411;28;20022;-62
2021/12/11 02:41:11;;;;;;;21.75;11.88;;;;;;;-0.62;100.00;100645.16;2073398;28;20032;-61
2021/12/11 02:42:23;;;;;;;24.58;13.90;;;;;;;-0.56;100.00;100649.41;2073420;28;20434;-62
2021/12/11 02:43:30;;;;;;;20.77;11.98;;;;;;;-0.54;100.00;100648.56;2073371;28;20030;-62
2021/12/11 02:44:57;;;;;;;21.88;12.00;;;;;;;-0.53;100.00;100645.16;2073421;28;20083;-62
2021/12/11 02:46:08;;;;;;;23.58;12.48;;;;;;;-0.50;100.00;100646.00;2073425;28;20479;-62
2021/12/11 02:47:34;;;;;;;22.73;13.07;;;;;;;-0.48;100.00;100652.84;2064617;28;20129;-61
2021/12/11 02:48:42;;;;;;;24.35;12.50;;;;;;;-0.47;100.00;100646.00;2068296;28;20021;-62
2021/12/11 02:49:42;;;;;;;28.50;14.05;;;;;;;-0.47;100.00;100646.88;2073371;28;20096;-62
2021/12/11 02:50:52;;;;;;;24.47;13.43;;;;;;;-0.46;100.00;100646.03;2073366;28;20398;-62
2021/12/11 02:51:58;;;;;;;21.75;12.43;;;;;;;-0.46;100.00;100646.03;2073406;28;20090;-62
2021/12/11 02:53:05;;;;;;;23.52;13.02;;;;;;;-0.46;100.00;100650.28;2073176;28;20029;-62
2021/12/11 02:54:15;;;;;;;25.33;13.88;;;;;;;-0.43;100.00;100656.28;2073391;28;20026;-63
2021/12/11 02:55:24;;;;;;;21.25;13.30;;;;;;;-0.43;100.00;100656.28;2073280;28;20042;-62
2021/12/11 02:56:31;;;;;;;21.70;12.68;;;;;;;-0.42;100.00;100657.13;2073429;28;20093;-62
2021/12/11 02:57:41;;;;;;;25.42;13.63;;;;;;;-0.42;100.00;100663.13;2073429;28;20026;-62
2021/12/11 02:58:45;;;;;;;24.45;13.15;;;;;;;-0.42;100.00;100662.25;2073330;28;20080;-63
2021/12/11 02:59:46;;;;;;;24.85;13.02;;;;;;;-0.42;100.00;100667.38;2073328;28;20017;-63
2021/12/11 03:00:52;;;;;;;22.48;12.68;;;;;;;-0.41;100.00;100663.97;2073407;28;20100;-62
2021/12/11 03:01:58;;;;;;;21.60;12.32;;;;;;;-0.43;100.00;100663.97;2073243;28;20022;-63
2021/12/11 03:03:05;;;;;;;25.23;13.57;;;;;;;-0.44;100.00;100666.53;2073228;28;20020;-62
2021/12/11 03:04:19;;;;;;;24.83;14.00;;;;;;;-0.45;100.00;100667.41;2073335;28;20083;-63
2021/12/11 03:05:24;;;;;;;23.20;12.57;;;;;;;-0.46;100.00;100668.22;2073260;28;20030;-63
2021/12/11 03:06:27;;;;;;;21.85;12.43;;;;;;;-0.45;100.00;100675.09;2073264;28;20065;-63
2021/12/11 03:07:37;;;;;;;24.58;13.82;;;;;;;-0.44;100.00;100679.34;2073350;28;20398;-62
2021/12/11 03:08:37;;;;;;;22.00;12.63;;;;;;;-0.43;100.00;100681.91;2073353;28;20103;-62
2021/12/11 03:09:42;;;;;;;23.83;12.82;;;;;;;-0.42;100.00;100678.50;2073415;28;20030;-62
2021/12/11 03:10:46;;;;;;;21.42;12.40;;;;;;;-0.40;100.00;100676.78;2073266;28;20409;-62
2021/12/11 03:11:47;;;;;;;23.67;14.05;;;;;;;-0.37;100.00;100675.94;2073337;28;20018;-62
2021/12/11 03:12:48;;;;;;;26.00;12.27;;;;;;;-0.37;100.00;100685.34;2073327;28;20045;-62
2021/12/11 03:13:50;;;;;;;24.40;13.43;;;;;;;-0.36;100.00;100682.78;2073378;28;20361;-62
2021/12/11 03:14:51;;;;;;;22.92;12.40;;;;;;;-0.36;100.00;100680.22;2073282;28;20018;-62
2021/12/11 03:15:51;;;;;;;27.53;14.93;;;;;;;-0.37;100.00;100681.06;2073554;28;20097;-62
2021/12/11 03:16:53;;;;;;;23.00;12.33;;;;;;;-0.40;100.00;100683.63;2074679;28;20034;-62
2021/12/11 03:17:53;;;;;;;22.13;12.57;;;;;;;-0.41;100.00;100687.06;2074689;28;20090;-62
2021/12/11 03:18:56;;;;;;;25.50;13.10;;;;;;;-0.43;100.00;100696.44;2074766;28;20089;-61
2021/12/11 03:19:56;;;;;;;24.45;13.38;;;;;;;-0.40;100.00;100693.88;2074814;28;20065;-62
2021/12/11 03:20:57;;;;;;;23.17;13.63;;;;;;;-0.37;100.00;100691.34;2074777;28;20037;-62
2021/12/11 03:22:01;;;;;;;24.87;13.97;;;;;;;-0.34;100.00;100691.31;2065995;28;20215;-61
2021/12/11 03:23:03;;;;;;;24.33;13.25;;;;;;;-0.33;100.00;100698.16;2058309;28;20085;-62
2021/12/11 03:24:05;;;;;;;22.80;13.30;;;;;;;-0.31;100.00;100696.44;2057994;28;20022;-62
2021/12/11 03:25:10;;;;;;;20.20;12.40;;;;;;;-0.30;100.00;100698.16;2066290;28;20030;-62
2021/12/11 03:26:10;;;;;;;22.30;12.85;;;;;;;-0.28;100.00;100696.44;2074674;28;20467;-61
2021/12/11 03:27:11;;;;;;;23.65;13.25;;;;;;;-0.24;100.00;100701.59;2074677;28;20060;-61
2021/12/11 03:28:14;;;;;;;24.48;14.75;;;;;;;-0.22;100.00;100708.44;2074715;28;20026;-62
2021/12/11 03:29:15;;;;;;;22.75;13.70;;;;;;;-0.20;100.00;100708.44;2074602;28;20045;-62
2021/12/11 03:30:26;;;;;;;24.25;14.13;;;;;;;-0.21;100.00;100704.16;2074566;28;20065;-61
2021/12/11 03:31:27;;;;;;;23.80;14.25;;;;;;;-0.20;100.00;100703.28;2065875;28;20042;-61
2021/12/11 03:32:27;;;;;;;20.97;12.20;;;;;;;-0.18;100.00;100706.69;2065969;28;20113;-61
2021/12/11 03:33:42;;;;;;;29.63;16.53;;;;;;;-0.14;100.00;100705.84;2074602;28;20372;-62
2021/12/11 03:34:44;;;;;;;24.92;13.45;;;;;;;-0.13;100.00;100707.56;2074576;28;20025;-62
2021/12/11 03:35:46;;;;;;;24.80;14.40;;;;;;;-0.13;100.00;100707.56;2074546;28;20038;-62
2021/12/11 03:36:47;;;;;;;24.55;14.43;;;;;;;-0.11;100.00;100703.28;2074651;28;20106;-62
2021/12/11 03:37:48;;;;;;;25.75;14.15;;;;;;;-0.11;100.00;100708.41;2074631;28;20024;-62
2021/12/11 03:38:56;;;;;;;23.73;14.07;;;;;;;-0.10;100.00;100710.13;2074548;28;20110;-62
2021/12/11 03:39:56;;;;;;;24.80;13.85;;;;;;;-0.08;100.00;100716.13;2065802;28;20029;-62
2021/12/11 03:40:57;;;;;;;25.00;13.65;;;;;;;-0.05;100.00;100718.69;2065832;28;20097;-62
2021/12/11 03:42:00;;;;;;;21.85;11.88;;;;;;;-0.04;100.00;100715.25;2074636;28;20029;-62
2021/12/11 03:43:05;;;;;;;25.42;14.02;;;;;;;-0.04;100.00;100719.53;2065826;28;20030;-62
2021/12/11 03:44:07;;;;;;;22.77;13.20;;;;;;;-0.04;100.00;100714.41;2066516;28;20034;-63
2021/12/11 03:45:12;;;;;;;19.70;12.43;;;;;;;-0.04;100.00;100717.81;2074560;28;20049;-62
2021/12/11 03:46:13;;;;;;;19.90;12.27;;;;;;;-0.01;100.00;100720.41;2065778;28;20396;-62
2021/12/11 03:47:27;;;;;;;26.80;14.00;;;;;;;0.05;100.00;100719.53;2065893;28;20065;-62
2021/12/11 03:48:32;;;;;;;23.10;12.65;;;;;;;0.07;100.00;100719.53;2074495;28;20435;-62
2021/12/11 03:49:33;;;;;;;21.35;11.60;;;;;;;0.09;100.00;100721.25;2074551;28;20034;-62
2021/12/11 03:50:34;;;;;;;19.48;10.38;;;;;;;0.08;100.00;100723.81;2074521;28;20583;-61
2021/12/11 03:51:37;;;;;;;22.75;12.02;;;;;;;0.09;100.00;100725.50;2074515;28;20033;-63
2021/12/11 03:52:38;;;;;;;19.95;11.27;;;;;;;0.06;100.00;100726.38;2074556;28;20026;-62
2021/12/11 03:53:39;;;;;;;20.83;11.82;;;;;;;0.06;100.00;100725.50;2074513;28;20127;-63
2021/12/11 03:54:42;;;;;;;20.92;11.95;;;;;;;0.07;100.00;100729.81;2074742;28;20032;-62
2021/12/11 03:55:47;;;;;;;21.38;12.60;;;;;;;0.07;100.00;100729.81;2074564;28;20513;-62
2021/12/11 03:56:48;;;;;;;19.20;11.65;;;;;;;0.06;100.00;100725.50;2074495;28;20075;-63
2021/12/11 03:57:55;;;;;;;18.60;10.68;;;;;;;0.09;100.00;100730.66;2074601;28;20026;-63
2021/12/11 03:58:55;;;;;;;19.92;11.60;;;;;;;0.11;100.00;100728.94;2074544;28;20021;-62
2021/12/11 03:59:57;;;;;;;19.65;11.80;;;;;;;0.15;100.00;100730.66;2074521;28;20033;-63
2021/12/11 04:01:00;;;;;;;;;;;;;;;0.19;100.00;100732.34;2074926;28;20021;-62
2021/12/11 04:02:07;;;;;;;20.23;11.55;;;;;;;0.19;100.00;100729.78;2077167;28;20282;-63
2021/12/11 04:03:10;;;;;;;19.80;11.07;;;;;;;0.19;100.00;100732.34;2065757;28;20046;-62
2021/12/11 04:04:16;;;;;;;20.85;11.52;;;;;;;0.19;100.00;100737.50;2066059;28;20034;-62
2021/12/11 04:05:16;;;;;;;20.05;11.27;;;;;;;0.17;100.00;100739.19;2074405;28;20467;-63
2021/12/11 04:06:18;;;;;;;21.50;12.63;;;;;;;0.17;100.00;100741.75;2074471;28;20025;-62
2021/12/11 04:07:26;;;;;;;22.08;12.70;;;;;;;0.21;100.00;100735.75;2074395;28;20521;-61
2021/12/11 04:08:30;;;;;;;21.60;11.82;;;;;;;0.25;100.00;100741.75;2074444;28;20028;-62
2021/12/11 04:09:31;;;;;;;20.30;11.05;;;;;;;0.28;100.00;100738.34;2074407;28;20533;-61
2021/12/11 04:10:31;;;;;;;22.92;12.93;;;;;;;0.31;100.00;100735.78;2074317;28;20038;-62
2021/12/11 04:11:33;;;;;;;25.43;12.93;;;;;;;0.35;100.00;100740.03;2074419;28;20336;-63
2021/12/11 04:12:34;;;;;;;20.40;11.88;;;;;;;0.39;100.00;100741.75;2074350;28;20546;-63
2021/12/11 04:13:35;;;;;;;20.35;12.80;;;;;;;0.41;100.00;100740.00;2074372;28;20034;-63
2021/12/11 04:14:39;;;;;;;22.83;12.70;;;;;;;0.45;100.00;100740.88;2074356;28;20026;-62
2021/12/11 04:15:42;;;;;;;19.63;12.55;;;;;;;0.47;100.00;100747.72;2074318;28;20030;-62
2021/12/11 04:16:43;;;;;;;20.70;11.25;;;;;;;0.47;100.00;100746.84;2074355;28;20033;-63
2021/12/11 04:17:44;;;;;;;21.02;12.45;;;;;;;0.48;100.00;100746.00;2074253;28;20491;-63
2021/12/11 04:18:45;;;;;;;23.13;12.48;;;;;;;0.50;100.00;100752.84;2074248;28;20025;-63
2021/12/11 04:19:46;;;;;;;23.70;13.05;;;;;;;0.50;100.00;100752.84;2074630;28;20029;-63
2021/12/11 04:20:47;;;;;;;17.57;10.70;;;;;;;0.51;100.00;100752.00;2065668;28;20105;-62
2021/12/11 04:21:48;;;;;;;23.90;12.25;;;;;;;0.51;100.00;100754.56;2065743;28;20773;-63
2021/12/11 04:22:50;;;;;;;21.52;12.85;;;;;;;0.54;100.00;100760.56;2074363;28;20021;-63
2021/12/11 04:23:50;;;;;;;21.33;12.10;;;;;;;0.54;100.00;100752.84;2074341;28;20022;-63
2021/12/11 04:24:51;;;;;;;19.42;12.35;;;;;;;0.57;100.00;100765.66;2074300;28;20060;-62
2021/12/11 04:25:54;;;;;;;21.17;11.13;;;;;;;0.59;100.00;100761.38;2065590;28;20550;-63
2021/12/11 04:26:57;;;;;;;19.98;12.20;;;;;;;0.59;100.00;100762.25;2065734;28;20503;-63
2021/12/11 04:27:58;;;;;;;19.85;12.60;;;;;;;0.59;100.00;100767.41;2073300;28;20021;-62
2021/12/11 04:28:58;;;;;;;18.67;11.25;;;;;;;0.61;100.00;100770.81;2074185;28;20022;-63
2021/12/11 04:29:59;;;;;;;17.90;11.40;;;;;;;0.66;100.00;100763.09;2074040;28;20026;-62
2021/12/11 04:31:05;;;;;;;19.03;11.83;;;;;;;0.71;100.00;100770.75;2074326;28;20030;-63
2021/12/11 04:32:07;;;;;;;21.27;12.05;;;;;;;0.76;100.00;100769.91;2074198;28;20041;-63
2021/12/11 04:33:08;;;;;;;23.50;12.35;;;;;;;0.80;100.00;100775.03;2074178;28;20399;-63
2021/12/11 04:34:12;;;;;;;18.42;11.48;;;;;;;0.84;100.00;100766.44;2074214;28;20038;-62
2021/12/11 04:35:14;;;;;;;21.13;12.77;;;;;;;0.87;100.00;100771.59;2074209;28;20040;-63
2021/12/11 04:36:23;;;;;;;20.33;12.65;;;;;;;0.89;100.00;100772.44;2074143;28;20073;-63
2021/12/11 04:37:29;;;;;;;17.67;10.85;;;;;;;0.91;100.00;100773.28;2074145;28;20025;-62
2021/12/11 04:38:30;;;;;;;21.95;12.95;;;;;;;0.92;100.00;100777.56;2074145;28;20526;-63
2021/12/11 04:39:35;;;;;;;23.13;12.63;;;;;;;0.94;100.00;100778.44;2074164;28;20109;-62
2021/12/11 04:40:39;;;;;;;19.48;12.70;;;;;;;0.96;100.00;100775.84;2074076;28;20029;-62
2021/12/11 04:41:52;;;;;;;22.20;12.57;;;;;;;0.97;100.00;100768.13;2074117;28;20030;-63
2021/12/11 04:42:59;;;;;;;22.95;12.80;;;;;;;0.98;100.00;100774.13;2074091;28;20021;-62
2021/12/11 04:44:08;;;;;;;21.10;11.65;;;;;;;0.98;100.00;100764.69;2074167;28;20060;-63
2021/12/11 04:45:15;;;;;;;20.92;11.85;;;;;;;1.01;100.00;100774.09;2073958;28;20467;-63
2021/12/11 04:46:15;;;;;;;21.17;11.63;;;;;;;1.01;100.00;100772.41;2065372;28;20033;-63
2021/12/11 04:47:33;;;;;;;22.77;13.57;;;;;;;1.03;100.00;100777.53;2065433;28;20038;-63
2021/12/11 04:49:57;;;;;;;21.38;12.40;;;;;;;1.05;100.00;100786.09;2074087;28;20117;-64
2021/12/11 04:51:10;;;;;;;22.95;13.02;;;;;;;1.07;100.00;100778.38;2074074;28;20488;-63
2021/12/11 04:52:33;;;;;;;22.80;12.00;;;;;;;1.10;100.00;100789.47;2074000;28;20053;-63
2021/12/11 04:55:18;;;;;;;20.58;12.05;;;;;;;1.12;100.00;100789.47;2074068;28;20084;-63
2021/12/11 04:56:40;;;;;;;22.75;12.77;;;;;;;1.13;100.00;100794.63;2069915;28;20034;-63
2021/12/11 05:04:10;;;;;;;22.70;13.13;;;;;;;1.14;100.00;100819.50;2074144;28;20042;-63
2021/12/11 05:06:40;;;;;;;19.95;12.10;;;;;;;1.17;100.00;100816.03;2074027;28;20495;-63
2021/12/11 05:07:59;;;;;;;22.20;12.15;;;;;;;1.19;100.00;100814.31;2073935;28;20108;-62
2021/12/11 05:09:15;;;;;;;24.90;13.57;;;;;;;1.20;100.00;100815.19;2073893;28;20075;-62
2021/12/11 05:10:25;;;;;;;21.98;11.45;;;;;;;1.22;100.00;100816.88;2073846;28;21985;-62
2021/12/11 05:11:37;;;;;;;26.05;12.90;;;;;;;1.22;100.00;100811.72;2073915;28;20106;-62